createdAt,value
2022-09-15T00:09:22.852Z,82.60
2022-09-15T00:19:27.613Z,82.61
2022-09-15T00:29:31.359Z,82.82
2022-09-15T00:39:35.772Z,82.71
2022-09-15T00:49:41.155Z,82.80
2022-09-15T00:59:47.674Z,82.51
2022-09-15T01:09:54.346Z,81.42
2022-09-15T01:20:46.570Z,79.68
2022-09-15T01:31:01.310Z,78.93
2022-09-15T01:41:12.179Z,79.94
2022-09-15T01:51:18.051Z,80.90
2022-09-15T02:01:28.412Z,81.31
2022-09-15T02:11:36.700Z,80.52
2022-09-15T02:21:55.207Z,80.67
2022-09-15T02:32:07.089Z,80.21
2022-09-15T02:42:10.848Z,79.77
2022-09-15T02:52:16.901Z,80.04
2022-09-15T03:02:23.823Z,79.95
2022-09-15T03:12:31.769Z,79.67
2022-09-15T03:22:44.334Z,80.16
2022-09-15T03:33:10.085Z,80.08
2022-09-15T03:53:35.961Z,80.70
2022-09-15T04:03:45.179Z,81.27
2022-09-15T04:13:57.212Z,81.17
2022-09-15T04:24:06.889Z,81.73
2022-09-15T04:34:11.689Z,81.88
2022-09-15T04:44:23.103Z,82.17
2022-09-15T04:54:34.315Z,82.00
2022-09-15T05:04:44.032Z,81.94
2022-09-15T05:59:39.886Z,82.46
2022-09-15T06:32:30.005Z,82.57
2022-09-15T07:48:25.725Z,77.86
2022-09-15T08:10:47.118Z,78.42
2022-09-15T08:31:50.139Z,79.33
2022-09-15T09:35:40.830Z,74.27
2022-09-15T09:46:20.567Z,76.62
2022-09-15T09:56:30.078Z,76.19
2022-09-15T10:18:28.264Z,77.72
2022-09-15T10:40:19.833Z,75.57
2022-09-15T10:50:32.093Z,74.90
2022-09-15T11:00:45.274Z,74.41
2022-09-15T11:10:56.840Z,75.15
2022-09-15T11:21:15.882Z,75.28
2022-09-15T11:31:24.888Z,76.09
2022-09-15T11:43:04.511Z,77.77
2022-09-15T11:52:58.564Z,77.18
2022-09-15T12:03:30.301Z,77.14
2022-09-15T12:13:41.242Z,77.58
2022-09-15T12:24:13.766Z,76.22
2022-09-15T14:25:03.220Z,80.78
2022-09-15T14:35:17.338Z,81.14
2022-09-15T14:58:37.315Z,81.61
2022-09-15T15:07:02.153Z,81.37
2022-09-15T15:17:30.442Z,81.68
2022-09-15T15:27:45.486Z,82.95
2022-09-15T15:38:03.724Z,82.21
2022-09-15T15:48:09.400Z,82.27
2022-09-15T15:58:16.921Z,82.81
2022-09-15T16:08:28.411Z,82.66
2022-09-15T16:18:34.620Z,82.15
2022-09-15T16:28:37.745Z,82.26
2022-09-15T16:38:44.389Z,82.21
2022-09-15T16:48:47.706Z,82.10
2022-09-15T16:58:58.883Z,82.38
2022-09-15T17:09:05.431Z,82.49
2022-09-15T17:19:10.564Z,82.66
2022-09-15T17:29:13.791Z,82.46
2022-09-15T17:39:18.406Z,82.96
2022-09-15T17:49:21.445Z,83.44
2022-09-15T17:59:32.629Z,84.12
2022-09-15T18:09:36.138Z,84.20
2022-09-15T18:19:42.901Z,84.92
2022-09-15T18:29:54.132Z,84.80
2022-09-15T18:40:01.297Z,85.36
2022-09-15T19:01:08.800Z,86.06
2022-09-15T19:11:13.831Z,85.94
2022-09-15T19:21:32.556Z,86.36
2022-09-15T19:31:41.961Z,86.29
2022-09-15T19:41:57.276Z,86.06
2022-09-15T19:52:01.668Z,85.84
2022-09-15T20:13:11.177Z,85.11
2022-09-15T20:34:08.392Z,83.75
2022-09-15T20:44:15.428Z,82.83
2022-09-15T20:54:18.462Z,82.72
2022-09-15T21:04:23.284Z,82.68
2022-09-15T21:14:26.564Z,82.42
2022-09-15T21:24:31.597Z,82.20
2022-09-15T21:34:34.952Z,82.35
2022-09-15T21:44:40.714Z,82.04
2022-09-15T21:54:54.608Z,82.37
2022-09-15T22:05:02.733Z,82.36
2022-09-15T22:15:08.192Z,82.50
2022-09-15T22:25:16.525Z,82.73
2022-09-15T22:35:22.823Z,83.31
2022-09-15T22:45:28.772Z,83.11
2022-09-15T22:55:33.642Z,83.23
2022-09-15T23:05:38.461Z,83.58
2022-09-15T23:15:43.953Z,84.12
2022-09-15T23:25:49.005Z,84.29
2022-09-15T23:35:54.489Z,83.85
2022-09-15T23:45:59.477Z,83.96
2022-09-15T23:56:03.174Z,84.38
